sensor_id;sensor_type;location;lat;lon;timestamp;P1;durP1;ratioP1;P2;durP2;ratioP2
49310;SDS011;35177;45.900;5.946;2023-06-14T00:00:04;25.27;;;4.13;;
49310;SDS011;35177;45.900;5.946;2023-06-14T00:02:32;12.20;;;4.53;;
49310;SDS011;35177;45.900;5.946;2023-06-14T00:04:57;30.88;;;6.40;;
49310;SDS011;35177;45.900;5.946;2023-06-14T00:07:33;29.83;;;5.07;;
49310;SDS011;35177;45.900;5.946;2023-06-14T00:12:35;27.35;;;4.70;;
49310;SDS011;35177;45.900;5.946;2023-06-14T00:15:01;23.67;;;4.88;;
49310;SDS011;35177;45.900;5.946;2023-06-14T00:17:28;26.92;;;5.70;;
49310;SDS011;35177;45.900;5.946;2023-06-14T00:19:58;21.20;;;5.05;;
49310;SDS011;35177;45.900;5.946;2023-06-14T00:22:24;16.90;;;4.93;;
49310;SDS011;35177;45.900;5.946;2023-06-14T00:24:51;10.35;;;4.68;;
49310;SDS011;35177;45.900;5.946;2023-06-14T00:27:16;36.22;;;5.40;;
49310;SDS011;35177;45.900;5.946;2023-06-14T00:29:42;15.38;;;4.97;;
49310;SDS011;35177;45.900;5.946;2023-06-14T00:32:07;20.23;;;5.78;;
49310;SDS011;35177;45.900;5.946;2023-06-14T00:34:33;8.32;;;4.50;;
49310;SDS011;35177;45.900;5.946;2023-06-14T00:36:59;22.17;;;4.20;;
49310;SDS011;35177;45.900;5.946;2023-06-14T00:39:25;19.45;;;4.80;;
49310;SDS011;35177;45.900;5.946;2023-06-14T00:41:50;25.52;;;5.32;;
49310;SDS011;35177;45.900;5.946;2023-06-14T00:44:16;20.13;;;4.65;;
49310;SDS011;35177;45.900;5.946;2023-06-14T00:46:42;30.55;;;5.90;;
49310;SDS011;35177;45.900;5.946;2023-06-14T00:49:08;15.63;;;4.50;;
49310;SDS011;35177;45.900;5.946;2023-06-14T00:51:35;31.30;;;6.03;;
49310;SDS011;35177;45.900;5.946;2023-06-14T00:54:02;26.40;;;4.78;;
49310;SDS011;35177;45.900;5.946;2023-06-14T00:56:28;19.00;;;4.85;;
49310;SDS011;35177;45.900;5.946;2023-06-14T00:58:54;29.48;;;5.43;;
49310;SDS011;35177;45.900;5.946;2023-06-14T01:01:21;13.68;;;4.32;;
49310;SDS011;35177;45.900;5.946;2023-06-14T01:03:47;23.00;;;4.55;;
49310;SDS011;35177;45.900;5.946;2023-06-14T01:06:18;19.77;;;5.53;;
49310;SDS011;35177;45.900;5.946;2023-06-14T01:11:54;10.45;;;4.40;;
49310;SDS011;35177;45.900;5.946;2023-06-14T01:14:21;15.57;;;4.60;;
49310;SDS011;35177;45.900;5.946;2023-06-14T01:16:47;18.52;;;4.40;;
49310;SDS011;35177;45.900;5.946;2023-06-14T01:19:18;13.02;;;4.78;;
49310;SDS011;35177;45.900;5.946;2023-06-14T01:21:47;17.63;;;4.30;;
49310;SDS011;35177;45.900;5.946;2023-06-14T01:24:16;12.55;;;3.97;;
49310;SDS011;35177;45.900;5.946;2023-06-14T01:26:44;16.92;;;4.38;;
49310;SDS011;35177;45.900;5.946;2023-06-14T01:29:12;6.32;;;4.25;;
49310;SDS011;35177;45.900;5.946;2023-06-14T01:31:42;10.20;;;4.43;;
49310;SDS011;35177;45.900;5.946;2023-06-14T01:34:08;7.88;;;4.00;;
49310;SDS011;35177;45.900;5.946;2023-06-14T01:36:34;6.55;;;3.97;;
49310;SDS011;35177;45.900;5.946;2023-06-14T01:39:02;4.97;;;3.92;;
49310;SDS011;35177;45.900;5.946;2023-06-14T01:41:29;8.57;;;4.10;;
49310;SDS011;35177;45.900;5.946;2023-06-14T01:43:55;11.55;;;4.78;;
49310;SDS011;35177;45.900;5.946;2023-06-14T01:46:22;14.20;;;4.78;;
49310;SDS011;35177;45.900;5.946;2023-06-14T01:48:48;8.32;;;4.22;;
49310;SDS011;35177;45.900;5.946;2023-06-14T01:51:14;6.53;;;4.05;;
49310;SDS011;35177;45.900;5.946;2023-06-14T01:53:39;9.68;;;4.53;;
49310;SDS011;35177;45.900;5.946;2023-06-14T01:56:06;9.35;;;4.35;;
49310;SDS011;35177;45.900;5.946;2023-06-14T01:58:31;7.78;;;4.25;;
49310;SDS011;35177;45.900;5.946;2023-06-14T02:00:58;8.95;;;4.30;;
49310;SDS011;35177;45.900;5.946;2023-06-14T02:03:25;10.15;;;4.47;;
49310;SDS011;35177;45.900;5.946;2023-06-14T02:05:51;10.63;;;4.50;;
49310;SDS011;35177;45.900;5.946;2023-06-14T02:08:17;9.52;;;3.80;;
49310;SDS011;35177;45.900;5.946;2023-06-14T02:10:43;9.60;;;4.18;;
49310;SDS011;35177;45.900;5.946;2023-06-14T02:13:08;8.32;;;4.10;;
49310;SDS011;35177;45.900;5.946;2023-06-14T02:15:34;11.38;;;4.18;;
49310;SDS011;35177;45.900;5.946;2023-06-14T02:18:03;8.82;;;4.07;;
49310;SDS011;35177;45.900;5.946;2023-06-14T02:20:30;9.57;;;4.22;;
49310;SDS011;35177;45.900;5.946;2023-06-14T02:22:56;12.20;;;4.80;;
49310;SDS011;35177;45.900;5.946;2023-06-14T02:25:22;11.20;;;4.53;;
49310;SDS011;35177;45.900;5.946;2023-06-14T02:27:47;6.65;;;4.35;;
49310;SDS011;35177;45.900;5.946;2023-06-14T02:30:13;8.55;;;4.60;;
49310;SDS011;35177;45.900;5.946;2023-06-14T02:32:40;11.85;;;4.13;;
49310;SDS011;35177;45.900;5.946;2023-06-14T02:35:08;12.23;;;4.07;;
49310;SDS011;35177;45.900;5.946;2023-06-14T02:37:33;14.50;;;4.63;;
49310;SDS011;35177;45.900;5.946;2023-06-14T02:40:00;12.63;;;4.38;;
49310;SDS011;35177;45.900;5.946;2023-06-14T02:42:25;8.90;;;4.55;;
49310;SDS011;35177;45.900;5.946;2023-06-14T02:44:51;12.80;;;4.22;;
49310;SDS011;35177;45.900;5.946;2023-06-14T02:47:19;7.85;;;4.78;;
49310;SDS011;35177;45.900;5.946;2023-06-14T02:49:44;9.65;;;4.60;;
49310;SDS011;35177;45.900;5.946;2023-06-14T02:52:13;11.60;;;4.43;;
49310;SDS011;35177;45.900;5.946;2023-06-14T02:54:39;9.50;;;4.47;;
49310;SDS011;35177;45.900;5.946;2023-06-14T02:57:05;9.57;;;4.93;;
49310;SDS011;35177;45.900;5.946;2023-06-14T02:59:32;8.38;;;4.07;;
49310;SDS011;35177;45.900;5.946;2023-06-14T03:01:58;9.65;;;4.70;;
49310;SDS011;35177;45.900;5.946;2023-06-14T03:04:24;7.72;;;4.57;;
49310;SDS011;35177;45.900;5.946;2023-06-14T03:06:51;9.85;;;4.20;;
49310;SDS011;35177;45.900;5.946;2023-06-14T03:09:19;11.02;;;4.18;;
49310;SDS011;35177;45.900;5.946;2023-06-14T03:11:45;12.68;;;4.53;;
49310;SDS011;35177;45.900;5.946;2023-06-14T03:14:10;12.13;;;4.63;;
49310;SDS011;35177;45.900;5.946;2023-06-14T03:16:38;10.95;;;4.15;;
49310;SDS011;35177;45.900;5.946;2023-06-14T03:19:03;15.95;;;4.43;;
49310;SDS011;35177;45.900;5.946;2023-06-14T03:21:29;18.80;;;4.15;;
49310;SDS011;35177;45.900;5.946;2023-06-14T03:23:55;15.70;;;4.40;;
49310;SDS011;35177;45.900;5.946;2023-06-14T03:26:20;14.13;;;4.53;;
49310;SDS011;35177;45.900;5.946;2023-06-14T03:28:47;16.42;;;4.10;;
49310;SDS011;35177;45.900;5.946;2023-06-14T03:31:16;9.10;;;3.97;;
49310;SDS011;35177;45.900;5.946;2023-06-14T03:33:41;12.30;;;4.60;;
49310;SDS011;35177;45.900;5.946;2023-06-14T03:36:07;10.23;;;4.35;;
49310;SDS011;35177;45.900;5.946;2023-06-14T03:38:33;9.73;;;4.25;;
49310;SDS011;35177;45.900;5.946;2023-06-14T03:40:59;7.30;;;3.92;;
49310;SDS011;35177;45.900;5.946;2023-06-14T03:43:25;10.23;;;3.95;;
49310;SDS011;35177;45.900;5.946;2023-06-14T03:45:50;12.60;;;4.07;;
49310;SDS011;35177;45.900;5.946;2023-06-14T03:48:16;13.13;;;4.25;;
49310;SDS011;35177;45.900;5.946;2023-06-14T03:50:41;15.10;;;4.43;;
49310;SDS011;35177;45.900;5.946;2023-06-14T03:53:08;12.50;;;4.68;;
49310;SDS011;35177;45.900;5.946;2023-06-14T03:55:34;4.50;;;3.70;;
49310;SDS011;35177;45.900;5.946;2023-06-14T03:58:00;11.73;;;4.50;;
49310;SDS011;35177;45.900;5.946;2023-06-14T04:00:26;7.38;;;4.28;;
49310;SDS011;35177;45.900;5.946;2023-06-14T04:02:52;8.20;;;4.35;;
49310;SDS011;35177;45.900;5.946;2023-06-14T04:05:19;7.70;;;4.32;;
49310;SDS011;35177;45.900;5.946;2023-06-14T04:07:44;7.75;;;4.70;;
49310;SDS011;35177;45.900;5.946;2023-06-14T04:10:11;6.53;;;4.47;;
49310;SDS011;35177;45.900;5.946;2023-06-14T04:12:37;11.75;;;4.47;;
49310;SDS011;35177;45.900;5.946;2023-06-14T04:15:03;6.60;;;4.45;;
49310;SDS011;35177;45.900;5.946;2023-06-14T04:17:31;7.55;;;4.50;;
49310;SDS011;35177;45.900;5.946;2023-06-14T04:19:58;9.95;;;4.43;;
49310;SDS011;35177;45.900;5.946;2023-06-14T04:22:25;11.60;;;3.80;;
49310;SDS011;35177;45.900;5.946;2023-06-14T04:24:53;7.10;;;4.43;;
49310;SDS011;35177;45.900;5.946;2023-06-14T04:27:21;6.22;;;4.63;;
49310;SDS011;35177;45.900;5.946;2023-06-14T04:29:51;7.07;;;4.55;;
49310;SDS011;35177;45.900;5.946;2023-06-14T04:32:28;12.50;;;5.80;;
49310;SDS011;35177;45.900;5.946;2023-06-14T04:34:58;6.75;;;4.47;;
49310;SDS011;35177;45.900;5.946;2023-06-14T04:37:28;13.73;;;4.68;;
49310;SDS011;35177;45.900;5.946;2023-06-14T04:39:55;8.45;;;4.63;;
49310;SDS011;35177;45.900;5.946;2023-06-14T04:42:22;6.43;;;4.32;;
49310;SDS011;35177;45.900;5.946;2023-06-14T04:44:50;6.80;;;4.18;;
49310;SDS011;35177;45.900;5.946;2023-06-14T04:47:16;9.23;;;4.30;;
49310;SDS011;35177;45.900;5.946;2023-06-14T04:49:44;5.00;;;3.45;;
49310;SDS011;35177;45.900;5.946;2023-06-14T04:52:09;11.93;;;4.30;;
49310;SDS011;35177;45.900;5.946;2023-06-14T04:54:35;7.25;;;3.63;;
49310;SDS011;35177;45.900;5.946;2023-06-14T04:57:08;7.70;;;3.85;;
49310;SDS011;35177;45.900;5.946;2023-06-14T04:59:34;8.35;;;5.20;;
49310;SDS011;35177;45.900;5.946;2023-06-14T05:02:00;6.10;;;4.25;;
49310;SDS011;35177;45.900;5.946;2023-06-14T05:04:26;6.15;;;3.72;;
49310;SDS011;35177;45.900;5.946;2023-06-14T05:06:53;6.45;;;3.92;;
49310;SDS011;35177;45.900;5.946;2023-06-14T05:09:19;6.70;;;3.88;;
49310;SDS011;35177;45.900;5.946;2023-06-14T05:11:46;11.65;;;4.50;;
49310;SDS011;35177;45.900;5.946;2023-06-14T05:14:12;7.80;;;4.13;;
49310;SDS011;35177;45.900;5.946;2023-06-14T05:16:38;5.97;;;4.47;;
49310;SDS011;35177;45.900;5.946;2023-06-14T05:19:05;4.70;;;4.18;;
49310;SDS011;35177;45.900;5.946;2023-06-14T05:21:30;4.90;;;4.38;;
49310;SDS011;35177;45.900;5.946;2023-06-14T05:23:58;6.15;;;4.22;;
49310;SDS011;35177;45.900;5.946;2023-06-14T05:26:24;9.75;;;3.95;;
49310;SDS011;35177;45.900;5.946;2023-06-14T05:28:54;6.38;;;4.18;;
49310;SDS011;35177;45.900;5.946;2023-06-14T05:31:21;10.95;;;4.13;;
49310;SDS011;35177;45.900;5.946;2023-06-14T05:33:50;5.70;;;3.72;;
49310;SDS011;35177;45.900;5.946;2023-06-14T05:36:16;8.95;;;4.32;;
49310;SDS011;35177;45.900;5.946;2023-06-14T05:38:42;4.50;;;4.10;;
49310;SDS011;35177;45.900;5.946;2023-06-14T05:41:07;8.68;;;3.97;;
49310;SDS011;35177;45.900;5.946;2023-06-14T05:43:33;6.07;;;4.00;;
49310;SDS011;35177;45.900;5.946;2023-06-14T05:45:58;5.72;;;4.13;;
49310;SDS011;35177;45.900;5.946;2023-06-14T05:48:24;8.35;;;4.32;;
49310;SDS011;35177;45.900;5.946;2023-06-14T05:50:49;12.57;;;4.85;;
49310;SDS011;35177;45.900;5.946;2023-06-14T05:53:15;4.82;;;4.25;;
49310;SDS011;35177;45.900;5.946;2023-06-14T05:55:40;4.55;;;4.00;;
49310;SDS011;35177;45.900;5.946;2023-06-14T05:58:06;5.43;;;4.15;;
49310;SDS011;35177;45.900;5.946;2023-06-14T06:00:32;6.90;;;3.75;;
49310;SDS011;35177;45.900;5.946;2023-06-14T06:02:57;4.53;;;4.03;;
49310;SDS011;35177;45.900;5.946;2023-06-14T06:05:23;4.55;;;3.60;;
49310;SDS011;35177;45.900;5.946;2023-06-14T06:07:48;4.55;;;3.90;;
49310;SDS011;35177;45.900;5.946;2023-06-14T06:10:14;6.95;;;4.13;;
49310;SDS011;35177;45.900;5.946;2023-06-14T06:12:41;7.85;;;3.60;;
49310;SDS011;35177;45.900;5.946;2023-06-14T06:15:06;5.53;;;4.35;;
49310;SDS011;35177;45.900;5.946;2023-06-14T06:17:32;6.20;;;3.50;;
49310;SDS011;35177;45.900;5.946;2023-06-14T06:19:58;4.47;;;3.72;;
49310;SDS011;35177;45.900;5.946;2023-06-14T06:22:24;6.43;;;3.97;;
49310;SDS011;35177;45.900;5.946;2023-06-14T06:24:50;5.53;;;4.13;;
49310;SDS011;35177;45.900;5.946;2023-06-14T06:27:15;5.35;;;3.67;;
49310;SDS011;35177;45.900;5.946;2023-06-14T06:29:41;4.78;;;3.72;;
49310;SDS011;35177;45.900;5.946;2023-06-14T06:32:08;4.70;;;4.05;;
49310;SDS011;35177;45.900;5.946;2023-06-14T06:34:34;6.47;;;3.88;;
49310;SDS011;35177;45.900;5.946;2023-06-14T06:37:02;6.68;;;3.75;;
49310;SDS011;35177;45.900;5.946;2023-06-14T06:39:28;4.63;;;2.85;;
49310;SDS011;35177;45.900;5.946;2023-06-14T06:41:53;5.75;;;3.13;;
49310;SDS011;35177;45.900;5.946;2023-06-14T06:44:19;2.30;;;2.08;;
49310;SDS011;35177;45.900;5.946;2023-06-14T06:46:45;3.78;;;2.53;;
49310;SDS011;35177;45.900;5.946;2023-06-14T06:49:10;7.88;;;2.70;;
49310;SDS011;35177;45.900;5.946;2023-06-14T06:51:42;4.20;;;2.58;;
49310;SDS011;35177;45.900;5.946;2023-06-14T06:54:08;4.30;;;2.40;;
49310;SDS011;35177;45.900;5.946;2023-06-14T06:56:34;5.90;;;2.58;;
49310;SDS011;35177;45.900;5.946;2023-06-14T06:59:00;3.13;;;2.30;;
49310;SDS011;35177;45.900;5.946;2023-06-14T07:01:26;5.63;;;2.83;;
49310;SDS011;35177;45.900;5.946;2023-06-14T07:03:54;2.60;;;2.30;;
49310;SDS011;35177;45.900;5.946;2023-06-14T07:06:20;3.33;;;2.22;;
49310;SDS011;35177;45.900;5.946;2023-06-14T07:08:45;5.80;;;2.92;;
49310;SDS011;35177;45.900;5.946;2023-06-14T07:11:13;6.32;;;2.17;;
49310;SDS011;35177;45.900;5.946;2023-06-14T07:13:39;3.83;;;2.15;;
49310;SDS011;35177;45.900;5.946;2023-06-14T07:16:04;5.03;;;2.28;;
49310;SDS011;35177;45.900;5.946;2023-06-14T07:18:30;5.82;;;2.60;;
49310;SDS011;35177;45.900;5.946;2023-06-14T07:20:56;4.10;;;2.47;;
49310;SDS011;35177;45.900;5.946;2023-06-14T07:23:22;6.15;;;2.55;;
49310;SDS011;35177;45.900;5.946;2023-06-14T07:25:48;2.30;;;2.10;;
49310;SDS011;35177;45.900;5.946;2023-06-14T07:28:13;3.22;;;2.33;;
49310;SDS011;35177;45.900;5.946;2023-06-14T07:30:39;5.22;;;2.25;;
49310;SDS011;35177;45.900;5.946;2023-06-14T07:33:05;3.75;;;2.55;;
49310;SDS011;35177;45.900;5.946;2023-06-14T07:35:31;2.80;;;2.15;;
49310;SDS011;35177;45.900;5.946;2023-06-14T07:37:56;2.70;;;2.33;;
49310;SDS011;35177;45.900;5.946;2023-06-14T07:40:22;8.55;;;2.53;;
49310;SDS011;35177;45.900;5.946;2023-06-14T07:42:47;2.65;;;1.92;;
49310;SDS011;35177;45.900;5.946;2023-06-14T07:45:14;4.07;;;2.60;;
49310;SDS011;35177;45.900;5.946;2023-06-14T07:47:40;9.57;;;2.75;;
49310;SDS011;35177;45.900;5.946;2023-06-14T07:50:05;3.08;;;2.17;;
49310;SDS011;35177;45.900;5.946;2023-06-14T07:52:31;3.92;;;2.20;;
49310;SDS011;35177;45.900;5.946;2023-06-14T07:54:57;2.47;;;2.10;;
49310;SDS011;35177;45.900;5.946;2023-06-14T07:57:23;5.85;;;2.30;;
49310;SDS011;35177;45.900;5.946;2023-06-14T07:59:48;4.55;;;2.38;;
49310;SDS011;35177;45.900;5.946;2023-06-14T08:02:15;6.97;;;2.80;;
49310;SDS011;35177;45.900;5.946;2023-06-14T08:04:40;3.28;;;2.70;;
49310;SDS011;35177;45.900;5.946;2023-06-14T08:07:07;5.25;;;2.03;;
49310;SDS011;35177;45.900;5.946;2023-06-14T08:09:32;4.32;;;2.22;;
49310;SDS011;35177;45.900;5.946;2023-06-14T08:11:58;2.50;;;2.03;;
49310;SDS011;35177;45.900;5.946;2023-06-14T08:14:23;3.25;;;2.28;;
49310;SDS011;35177;45.900;5.946;2023-06-14T08:16:49;6.68;;;2.00;;
49310;SDS011;35177;45.900;5.946;2023-06-14T08:19:14;5.03;;;2.30;;
49310;SDS011;35177;45.900;5.946;2023-06-14T08:21:41;4.93;;;2.30;;
49310;SDS011;35177;45.900;5.946;2023-06-14T08:24:08;2.53;;;2.30;;
49310;SDS011;35177;45.900;5.946;2023-06-14T08:26:37;4.05;;;2.20;;
49310;SDS011;35177;45.900;5.946;2023-06-14T08:29:03;3.22;;;2.35;;
49310;SDS011;35177;45.900;5.946;2023-06-14T08:31:28;3.47;;;2.47;;
49310;SDS011;35177;45.900;5.946;2023-06-14T08:33:54;2.42;;;2.10;;
49310;SDS011;35177;45.900;5.946;2023-06-14T08:36:19;4.80;;;2.72;;
49310;SDS011;35177;45.900;5.946;2023-06-14T08:38:45;3.70;;;2.40;;
49310;SDS011;35177;45.900;5.946;2023-06-14T08:41:11;5.75;;;2.42;;
49310;SDS011;35177;45.900;5.946;2023-06-14T08:43:38;4.15;;;2.50;;
49310;SDS011;35177;45.900;5.946;2023-06-14T08:46:04;3.00;;;2.40;;
49310;SDS011;35177;45.900;5.946;2023-06-14T08:48:33;3.83;;;2.28;;
49310;SDS011;35177;45.900;5.946;2023-06-14T08:51:00;6.43;;;2.35;;
49310;SDS011;35177;45.900;5.946;2023-06-14T08:53:32;8.65;;;2.38;;
49310;SDS011;35177;45.900;5.946;2023-06-14T08:56:01;4.40;;;2.17;;
49310;SDS011;35177;45.900;5.946;2023-06-14T08:58:29;3.65;;;2.70;;
49310;SDS011;35177;45.900;5.946;2023-06-14T09:00:56;9.93;;;2.67;;
49310;SDS011;35177;45.900;5.946;2023-06-14T09:03:23;5.60;;;2.88;;
49310;SDS011;35177;45.900;5.946;2023-06-14T09:05:56;2.42;;;2.22;;
49310;SDS011;35177;45.900;5.946;2023-06-14T09:08:24;3.33;;;2.33;;
49310;SDS011;35177;45.900;5.946;2023-06-14T09:10:50;4.07;;;2.22;;
49310;SDS011;35177;45.900;5.946;2023-06-14T09:13:16;2.75;;;2.20;;
49310;SDS011;35177;45.900;5.946;2023-06-14T09:15:42;4.80;;;2.42;;
49310;SDS011;35177;45.900;5.946;2023-06-14T09:18:08;5.05;;;3.13;;
49310;SDS011;35177;45.900;5.946;2023-06-14T09:20:34;4.22;;;2.58;;
49310;SDS011;35177;45.900;5.946;2023-06-14T09:23:00;3.63;;;2.45;;
49310;SDS011;35177;45.900;5.946;2023-06-14T09:25:26;4.80;;;3.53;;
49310;SDS011;35177;45.900;5.946;2023-06-14T09:27:52;3.35;;;2.40;;
49310;SDS011;35177;45.900;5.946;2023-06-14T09:30:19;3.30;;;2.80;;
49310;SDS011;35177;45.900;5.946;2023-06-14T09:32:45;2.50;;;2.20;;
49310;SDS011;35177;45.900;5.946;2023-06-14T09:35:11;4.30;;;2.40;;
49310;SDS011;35177;45.900;5.946;2023-06-14T09:37:37;5.63;;;2.80;;
49310;SDS011;35177;45.900;5.946;2023-06-14T09:40:03;2.70;;;2.15;;
49310;SDS011;35177;45.900;5.946;2023-06-14T09:42:29;5.38;;;2.78;;
49310;SDS011;35177;45.900;5.946;2023-06-14T09:44:56;3.33;;;2.53;;
49310;SDS011;35177;45.900;5.946;2023-06-14T09:47:22;2.95;;;2.35;;
49310;SDS011;35177;45.900;5.946;2023-06-14T09:49:50;3.28;;;2.40;;
49310;SDS011;35177;45.900;5.946;2023-06-14T09:52:19;2.90;;;2.40;;
49310;SDS011;35177;45.900;5.946;2023-06-14T09:54:46;3.08;;;2.45;;
49310;SDS011;35177;45.900;5.946;2023-06-14T09:57:13;4.43;;;2.70;;
49310;SDS011;35177;45.900;5.946;2023-06-14T09:59:44;2.97;;;2.28;;
49310;SDS011;35177;45.900;5.946;2023-06-14T10:02:31;3.78;;;2.30;;
49310;SDS011;35177;45.900;5.946;2023-06-14T10:05:05;4.38;;;2.28;;
49310;SDS011;35177;45.900;5.946;2023-06-14T10:10:43;9.45;;;2.55;;
49310;SDS011;35177;45.900;5.946;2023-06-14T10:13:09;3.95;;;2.40;;
49310;SDS011;35177;45.900;5.946;2023-06-14T10:18:11;6.72;;;2.90;;
49310;SDS011;35177;45.900;5.946;2023-06-14T10:20:53;3.08;;;2.65;;
49310;SDS011;35177;45.900;5.946;2023-06-14T10:23:29;4.55;;;2.65;;
49310;SDS011;35177;45.900;5.946;2023-06-14T10:25:58;4.10;;;2.63;;
49310;SDS011;35177;45.900;5.946;2023-06-14T10:28:25;4.38;;;2.50;;
49310;SDS011;35177;45.900;5.946;2023-06-14T10:31:12;3.80;;;2.45;;
49310;SDS011;35177;45.900;5.946;2023-06-14T10:33:40;6.15;;;4.00;;
49310;SDS011;35177;45.900;5.946;2023-06-14T10:39:24;3.80;;;2.65;;
49310;SDS011;35177;45.900;5.946;2023-06-14T10:41:54;4.43;;;2.77;;
49310;SDS011;35177;45.900;5.946;2023-06-14T10:46:46;5.55;;;2.75;;
49310;SDS011;35177;45.900;5.946;2023-06-14T10:49:15;3.30;;;2.25;;
49310;SDS011;35177;45.900;5.946;2023-06-14T10:51:45;2.80;;;2.50;;
49310;SDS011;35177;45.900;5.946;2023-06-14T10:54:15;3.65;;;2.55;;
49310;SDS011;35177;45.900;5.946;2023-06-14T10:56:48;4.85;;;2.45;;
49310;SDS011;35177;45.900;5.946;2023-06-14T10:59:16;3.58;;;2.47;;
49310;SDS011;35177;45.900;5.946;2023-06-14T11:04:48;3.90;;;2.70;;
49310;SDS011;35177;45.900;5.946;2023-06-14T11:10:37;6.50;;;2.35;;
49310;SDS011;35177;45.900;5.946;2023-06-14T11:13:04;5.63;;;2.17;;
49310;SDS011;35177;45.900;5.946;2023-06-14T11:15:31;4.80;;;2.50;;
49310;SDS011;35177;45.900;5.946;2023-06-14T11:17:57;9.45;;;2.53;;
49310;SDS011;35177;45.900;5.946;2023-06-14T11:20:25;5.25;;;2.67;;
49310;SDS011;35177;45.900;5.946;2023-06-14T11:22:51;2.75;;;2.50;;
49310;SDS011;35177;45.900;5.946;2023-06-14T11:25:18;8.00;;;2.78;;
49310;SDS011;35177;45.900;5.946;2023-06-14T11:27:43;3.33;;;2.50;;
49310;SDS011;35177;45.900;5.946;2023-06-14T11:30:09;6.53;;;2.58;;
49310;SDS011;35177;45.900;5.946;2023-06-14T11:32:36;4.07;;;2.45;;
49310;SDS011;35177;45.900;5.946;2023-06-14T11:35:02;4.28;;;2.50;;
49310;SDS011;35177;45.900;5.946;2023-06-14T11:37:30;3.58;;;2.90;;
49310;SDS011;35177;45.900;5.946;2023-06-14T11:39:59;3.75;;;2.70;;
49310;SDS011;35177;45.900;5.946;2023-06-14T11:42:26;3.30;;;2.50;;
49310;SDS011;35177;45.900;5.946;2023-06-14T11:44:53;3.20;;;2.70;;
49310;SDS011;35177;45.900;5.946;2023-06-14T11:47:20;4.03;;;2.90;;
49310;SDS011;35177;45.900;5.946;2023-06-14T11:49:46;2.70;;;2.40;;
49310;SDS011;35177;45.900;5.946;2023-06-14T11:52:12;6.03;;;2.78;;
49310;SDS011;35177;45.900;5.946;2023-06-14T11:54:37;5.70;;;2.70;;
49310;SDS011;35177;45.900;5.946;2023-06-14T11:57:05;3.75;;;2.30;;
49310;SDS011;35177;45.900;5.946;2023-06-14T11:59:37;5.47;;;3.13;;
49310;SDS011;35177;45.900;5.946;2023-06-14T12:02:04;4.13;;;2.88;;
49310;SDS011;35177;45.900;5.946;2023-06-14T12:04:31;4.40;;;2.90;;
49310;SDS011;35177;45.900;5.946;2023-06-14T12:06:57;4.93;;;3.25;;
49310;SDS011;35177;45.900;5.946;2023-06-14T12:09:23;4.80;;;2.47;;
49310;SDS011;35177;45.900;5.946;2023-06-14T12:11:50;3.10;;;2.60;;
49310;SDS011;35177;45.900;5.946;2023-06-14T12:14:28;3.85;;;2.90;;
49310;SDS011;35177;45.900;5.946;2023-06-14T12:17:03;2.90;;;2.58;;
49310;SDS011;35177;45.900;5.946;2023-06-14T12:19:31;3.38;;;2.90;;
49310;SDS011;35177;45.900;5.946;2023-06-14T12:21:59;3.55;;;2.60;;
49310;SDS011;35177;45.900;5.946;2023-06-14T12:24:29;3.47;;;2.42;;
49310;SDS011;35177;45.900;5.946;2023-06-14T12:26:56;4.22;;;2.70;;
49310;SDS011;35177;45.900;5.946;2023-06-14T12:29:24;3.58;;;2.78;;
49310;SDS011;35177;45.900;5.946;2023-06-14T12:31:50;4.22;;;2.58;;
49310;SDS011;35177;45.900;5.946;2023-06-14T12:34:16;5.88;;;2.72;;
49310;SDS011;35177;45.900;5.946;2023-06-14T12:36:41;3.90;;;2.78;;
49310;SDS011;35177;45.900;5.946;2023-06-14T12:39:09;4.82;;;2.92;;
49310;SDS011;35177;45.900;5.946;2023-06-14T12:41:35;9.13;;;2.83;;
49310;SDS011;35177;45.900;5.946;2023-06-14T12:44:01;4.13;;;2.80;;
49310;SDS011;35177;45.900;5.946;2023-06-14T12:46:30;5.10;;;2.65;;
49310;SDS011;35177;45.900;5.946;2023-06-14T12:48:56;4.93;;;2.30;;
49310;SDS011;35177;45.900;5.946;2023-06-14T12:51:22;6.65;;;2.80;;
49310;SDS011;35177;45.900;5.946;2023-06-14T12:53:47;5.82;;;2.70;;
49310;SDS011;35177;45.900;5.946;2023-06-14T12:56:14;5.78;;;2.65;;
49310;SDS011;35177;45.900;5.946;2023-06-14T12:58:40;4.15;;;2.58;;
49310;SDS011;35177;45.900;5.946;2023-06-14T13:01:06;7.15;;;2.50;;
49310;SDS011;35177;45.900;5.946;2023-06-14T13:03:32;6.00;;;2.83;;
49310;SDS011;35177;45.900;5.946;2023-06-14T13:06:00;4.28;;;2.85;;
49310;SDS011;35177;45.900;5.946;2023-06-14T13:08:28;5.53;;;2.90;;
49310;SDS011;35177;45.900;5.946;2023-06-14T13:10:53;4.72;;;2.80;;
49310;SDS011;35177;45.900;5.946;2023-06-14T13:13:19;3.38;;;2.53;;
49310;SDS011;35177;45.900;5.946;2023-06-14T13:15:45;3.15;;;2.60;;
49310;SDS011;35177;45.900;5.946;2023-06-14T13:18:11;4.10;;;2.53;;
49310;SDS011;35177;45.900;5.946;2023-06-14T13:20:38;2.60;;;2.30;;
49310;SDS011;35177;45.900;5.946;2023-06-14T13:23:04;9.00;;;2.53;;
49310;SDS011;35177;45.900;5.946;2023-06-14T13:25:32;3.97;;;2.90;;
49310;SDS011;35177;45.900;5.946;2023-06-14T13:27:59;3.90;;;2.65;;
49310;SDS011;35177;45.900;5.946;2023-06-14T13:30:24;3.28;;;2.53;;
49310;SDS011;35177;45.900;5.946;2023-06-14T13:32:50;4.63;;;2.90;;
49310;SDS011;35177;45.900;5.946;2023-06-14T13:35:20;3.53;;;2.65;;
49310;SDS011;35177;45.900;5.946;2023-06-14T13:37:45;7.25;;;2.67;;
49310;SDS011;35177;45.900;5.946;2023-06-14T13:40:11;4.95;;;2.40;;
49310;SDS011;35177;45.900;5.946;2023-06-14T13:42:37;3.45;;;2.80;;
49310;SDS011;35177;45.900;5.946;2023-06-14T13:45:03;3.50;;;2.75;;
49310;SDS011;35177;45.900;5.946;2023-06-14T13:47:30;6.70;;;2.55;;
49310;SDS011;35177;45.900;5.946;2023-06-14T13:49:56;3.38;;;2.50;;
49310;SDS011;35177;45.900;5.946;2023-06-14T13:52:21;4.25;;;2.58;;
49310;SDS011;35177;45.900;5.946;2023-06-14T13:54:47;3.10;;;2.78;;
49310;SDS011;35177;45.900;5.946;2023-06-14T13:57:13;10.20;;;3.08;;
49310;SDS011;35177;45.900;5.946;2023-06-14T13:59:39;3.88;;;2.47;;
49310;SDS011;35177;45.900;5.946;2023-06-14T14:02:05;3.50;;;2.30;;
49310;SDS011;35177;45.900;5.946;2023-06-14T14:04:31;3.53;;;2.60;;
49310;SDS011;35177;45.900;5.946;2023-06-14T14:06:57;3.30;;;2.70;;
49310;SDS011;35177;45.900;5.946;2023-06-14T14:09:22;4.68;;;2.80;;
49310;SDS011;35177;45.900;5.946;2023-06-14T14:11:48;3.75;;;2.50;;
49310;SDS011;35177;45.900;5.946;2023-06-14T14:14:14;5.78;;;2.72;;
49310;SDS011;35177;45.900;5.946;2023-06-14T14:16:39;7.75;;;2.80;;
49310;SDS011;35177;45.900;5.946;2023-06-14T14:19:05;6.18;;;2.47;;
49310;SDS011;35177;45.900;5.946;2023-06-14T14:21:31;4.10;;;2.50;;
49310;SDS011;35177;45.900;5.946;2023-06-14T14:23:57;6.07;;;3.00;;
49310;SDS011;35177;45.900;5.946;2023-06-14T14:26:22;4.25;;;2.88;;
49310;SDS011;35177;45.900;5.946;2023-06-14T14:28:49;3.25;;;2.65;;
49310;SDS011;35177;45.900;5.946;2023-06-14T14:31:15;3.28;;;2.70;;
49310;SDS011;35177;45.900;5.946;2023-06-14T14:33:40;3.28;;;2.70;;
49310;SDS011;35177;45.900;5.946;2023-06-14T14:36:06;4.88;;;2.53;;
49310;SDS011;35177;45.900;5.946;2023-06-14T14:38:32;4.03;;;2.67;;
49310;SDS011;35177;45.900;5.946;2023-06-14T14:40:58;3.70;;;2.78;;
49310;SDS011;35177;45.900;5.946;2023-06-14T14:43:23;4.07;;;2.40;;
49310;SDS011;35177;45.900;5.946;2023-06-14T14:45:49;3.63;;;2.58;;
49310;SDS011;35177;45.900;5.946;2023-06-14T14:48:15;3.00;;;2.42;;
49310;SDS011;35177;45.900;5.946;2023-06-14T14:50:40;3.92;;;2.55;;
49310;SDS011;35177;45.900;5.946;2023-06-14T14:53:06;3.08;;;2.78;;
49310;SDS011;35177;45.900;5.946;2023-06-14T14:55:31;3.95;;;2.25;;
49310;SDS011;35177;45.900;5.946;2023-06-14T14:57:59;3.15;;;2.55;;
49310;SDS011;35177;45.900;5.946;2023-06-14T15:00:25;5.32;;;2.38;;
49310;SDS011;35177;45.900;5.946;2023-06-14T15:02:51;4.40;;;2.78;;
49310;SDS011;35177;45.900;5.946;2023-06-14T15:05:17;7.13;;;2.78;;